EDT,Max TemperatureF,Mean TemperatureF,Min TemperatureF,Max Dew PointF,MeanDew PointF,Min DewpointF,Max Humidity, Mean Humidity, Min Humidity, Max Sea Level PressureIn, Mean Sea Level PressureIn, Min Sea Level PressureIn, Max VisibilityMiles, Mean VisibilityMiles, Min VisibilityMiles, Max Wind SpeedMPH, Mean Wind SpeedMPH, Max Gust SpeedMPH,PrecipitationIn, CloudCover, Events, WindDirDegrees
2013-5-1,74,67,59,63,59,55,93,75,57,30.23,30.17,30.10,10,8,1,16,10,22,0.08,7,Rain,37
2013-5-2,70,64,57,63,59,53,97,83,68,30.26,30.23,30.19,10,8,1,20,11,29,0.02,7,Rain,53
2013-5-3,67,60,53,58,53,43,93,75,56,30.20,30.16,30.13,10,9,2,24,14,33,0.03,6,Rain,52
2013-5-4,70,61,51,55,51,46,89,73,57,30.12,30.06,30.02,10,10,8,22,15,29,T,7,,41
2013-5-5,70,62,53,61,56,51,93,81,68,30.03,29.97,29.93,10,10,9,23,11,32,0.01,6,Rain,64
2013-5-6,76,65,54,64,60,54,93,74,54,29.94,29.90,29.86,10,9,1,21,8,26,0.41,6,Rain-Thunderstorm,140
2013-5-7,72,63,53,55,51,46,93,67,41,29.98,29.93,29.88,10,10,7,18,6,23,T,2,,217
2013-5-8,76,64,52,58,54,50,100,72,43,30.03,29.99,29.96,10,10,7,16,8,22,0.00,2,,215
2013-5-9,83,72,60,61,58,54,90,64,37,30.09,30.04,29.99,10,10,10,15,7,20,0.00,2,,253
2013-5-10,86,74,62,63,61,57,93,67,40,30.10,30.06,30.02,10,10,8,18,8,24,0.00,0,,203
2013-5-11,84,77,70,69,65,60,90,71,51,30.03,29.93,29.86,10,10,10,18,11,25,0.00,1,,203
2013-5-12,81,72,62,65,58,47,84,59,33,29.98,29.87,29.81,10,10,10,17,9,24,T,3,Rain,285
2013-5-13,72,60,48,46,40,35,86,57,27,30.14,30.05,30.00,10,10,10,18,9,23,0.00,1,,351
2013-5-14,72,59,46,47,40,34,80,54,27,30.25,30.19,30.15,10,10,10,17,6,22,0.00,0,,161
2013-5-15,83,69,54,59,56,49,86,64,42,30.14,30.07,29.98,10,10,10,21,11,26,0.00,0,,210
2013-5-16,91,79,66,65,61,57,81,58,34,30.02,29.98,29.95,10,10,10,17,10,23,0.00,0,,235
2013-5-17,90,79,68,65,61,57,84,59,34,30.12,30.07,30.01,10,10,10,16,7,21,0.00,0,,246
2013-5-18,84,76,67,68,65,61,93,72,51,30.18,30.14,30.11,10,10,10,14,6,20,0.00,2,,196
2013-5-19,81,74,66,68,66,64,93,78,62,30.17,30.13,30.10,10,10,10,17,7,23,0.00,3,Thunderstorm,161
2013-5-20,80,75,69,70,67,66,97,83,69,30.16,30.11,30.07,10,9,2,18,8,23,0.15,6,Rain,179
2013-5-21,82,76,69,70,67,65,97,80,62,30.09,30.05,30.01,10,10,9,15,7,21,0.00,4,,186
2013-5-22,83,75,67,71,68,65,93,76,58,30.06,30.02,29.98,10,9,1,21,9,25,0.38,3,Rain,177
2013-5-23,82,76,70,70,69,66,97,82,67,30.00,29.93,29.85,10,10,7,20,6,24,0.13,5,Rain,191
2013-5-24,81,68,55,68,57,36,93,60,27,30.16,29.93,29.80,10,10,10,26,10,32,0.00,2,,309
2013-5-25,75,62,49,51,41,37,80,54,27,30.29,30.20,30.14,10,10,10,17,6,22,0.00,0,,314
2013-5-26,73,64,54,55,51,48,93,69,44,30.25,30.21,30.16,10,10,10,9,3,23,0.00,4,,324
2013-5-27,77,63,48,56,51,47,93,65,36,30.28,30.25,30.22,10,10,8,13,4,18,0.00,0,,109
2013-5-28,81,70,58,65,61,56,90,71,51,30.28,30.24,30.21,10,10,7,14,4,21,0.00,1,,151
2013-5-29,83,73,62,68,64,60,100,74,47,30.28,30.24,30.20,10,10,5,15,5,20,0.00,1,,163
2013-5-30,84,73,61,70,67,59,97,78,58,30.28,30.25,30.21,10,10,8,15,6,23,0.00,2,,125
2013-5-31,83,74,65,71,68,64,100,79,58,30.25,30.21,30.16,10,7,0,13,4,16,0.09,5,Fog-Rain,163